createdAt,value
2019-03-06T00:01:52.465Z,36.90
2019-03-06T00:04:18.424Z,36.90
2019-03-06T00:06:44.587Z,36.90
2019-03-06T00:09:10.548Z,36.90
2019-03-06T00:11:36.641Z,36.90
2019-03-06T00:14:02.582Z,36.90
2019-03-06T00:16:28.559Z,36.90
2019-03-06T00:18:55.038Z,36.90
2019-03-06T00:21:20.999Z,36.80
2019-03-06T00:23:46.938Z,36.90
2019-03-06T00:26:13.009Z,36.80
2019-03-06T00:28:38.984Z,36.80
2019-03-06T00:31:05.029Z,36.80
2019-03-06T00:33:31.055Z,36.80
2019-03-06T00:35:58.921Z,36.80
2019-03-06T00:38:24.887Z,36.80
2019-03-06T00:40:55.576Z,36.80
2019-03-06T00:43:21.533Z,36.80
2019-03-06T00:45:47.593Z,36.80
2019-03-06T00:48:13.587Z,36.70
2019-03-06T00:50:39.550Z,36.70
2019-03-06T00:53:05.602Z,36.70
2019-03-06T00:55:31.551Z,36.70
2019-03-06T00:57:57.509Z,36.80
2019-03-06T01:00:24.802Z,36.70
2019-03-06T01:02:50.847Z,36.70
2019-03-06T01:05:16.811Z,36.80
2019-03-06T01:07:42.760Z,36.70
2019-03-06T01:10:08.743Z,36.70
2019-03-06T01:12:35.351Z,36.80
2019-03-06T01:15:01.427Z,36.60
2019-03-06T01:17:27.387Z,36.80
2019-03-06T01:19:53.439Z,36.60
2019-03-06T01:22:19.840Z,36.70
2019-03-06T01:24:45.896Z,36.70
2019-03-06T01:27:31.740Z,36.50
2019-03-06T01:29:57.818Z,36.80
2019-03-06T01:32:24.833Z,37.10
2019-03-06T01:34:55.628Z,36.80
2019-03-06T01:37:23.488Z,36.80
2019-03-06T01:40:06.572Z,36.70
2019-03-06T01:42:35.882Z,36.80
2019-03-06T01:45:02.006Z,36.90
2019-03-06T01:47:28.040Z,36.80
2019-03-06T01:49:53.994Z,36.90
2019-03-06T01:52:20.047Z,36.90
2019-03-06T01:54:46.008Z,36.90
2019-03-06T01:57:12.262Z,36.90
2019-03-06T01:59:38.201Z,37.70
2019-03-06T02:02:04.184Z,37.10
2019-03-06T02:04:30.237Z,37.10
2019-03-06T02:06:56.220Z,37.10
2019-03-06T02:09:22.252Z,37.10
2019-03-06T02:11:48.204Z,37.10
2019-03-06T02:14:14.256Z,37.10
2019-03-06T02:16:40.230Z,37.10
2019-03-06T02:19:06.282Z,37.10
2019-03-06T02:21:32.220Z,37.00
2019-03-06T02:23:58.314Z,37.00
2019-03-06T02:26:24.364Z,37.00
2019-03-06T02:28:50.619Z,37.20
2019-03-06T02:31:16.583Z,37.30
2019-03-06T02:33:42.653Z,37.20
2019-03-06T02:36:08.690Z,37.30
2019-03-06T02:38:34.689Z,37.20
2019-03-06T02:41:00.737Z,37.50
2019-03-06T02:43:26.803Z,37.30
2019-03-06T02:45:52.846Z,37.30
2019-03-06T02:48:18.793Z,37.30
2019-03-06T02:50:44.751Z,37.20
2019-03-06T02:53:10.691Z,37.30
2019-03-06T02:55:36.648Z,37.80
2019-03-06T02:58:04.491Z,37.30
2019-03-06T03:00:38.949Z,37.20
2019-03-06T03:03:13.126Z,37.30
2019-03-06T03:05:41.002Z,37.20
2019-03-06T03:08:06.936Z,37.30
2019-03-06T03:10:33.007Z,38.00
2019-03-06T03:12:59.345Z,37.30
2019-03-06T03:15:25.312Z,37.40
2019-03-06T03:17:51.470Z,37.30
2019-03-06T03:20:17.554Z,37.40
2019-03-06T03:22:52.016Z,37.40
2019-03-06T03:25:18.085Z,37.40
2019-03-06T03:27:44.963Z,37.40
2019-03-06T03:30:11.044Z,37.40
2019-03-06T03:32:37.093Z,37.30
2019-03-06T03:35:03.178Z,37.40
2019-03-06T03:37:29.248Z,37.30
2019-03-06T03:39:55.296Z,37.40
2019-03-06T03:42:21.512Z,37.40
2019-03-06T03:44:47.491Z,37.40
2019-03-06T03:47:13.538Z,37.40
2019-03-06T03:49:39.504Z,37.40
2019-03-06T03:52:05.775Z,37.40
2019-03-06T03:54:32.068Z,37.40
2019-03-06T03:56:58.011Z,37.50
2019-03-06T03:59:24.420Z,37.40
2019-03-06T04:01:50.425Z,38.20
2019-03-06T04:04:16.492Z,37.40
2019-03-06T04:06:42.451Z,37.50
2019-03-06T04:09:08.481Z,37.40
2019-03-06T04:11:34.421Z,37.50
2019-03-06T04:14:00.383Z,37.40
2019-03-06T04:16:26.715Z,37.40
2019-03-06T04:18:52.701Z,37.50
2019-03-06T04:21:19.011Z,37.50
2019-03-06T04:23:45.045Z,37.50
2019-03-06T04:26:11.126Z,37.40
2019-03-06T04:28:37.188Z,37.50
2019-03-06T04:31:03.230Z,37.50
2019-03-06T04:33:29.387Z,37.60
2019-03-06T04:35:55.347Z,37.50
2019-03-06T04:38:21.306Z,37.50
2019-03-06T04:40:47.367Z,37.60
2019-03-06T04:43:13.428Z,37.50
2019-03-06T04:45:39.467Z,37.50
2019-03-06T04:48:05.431Z,37.50
2019-03-06T04:50:31.495Z,37.50
2019-03-06T04:52:57.463Z,37.50
2019-03-06T04:55:23.525Z,37.50
2019-03-06T04:57:49.457Z,37.40
2019-03-06T05:00:15.445Z,37.40
2019-03-06T05:02:42.911Z,37.90
2019-03-06T05:05:08.846Z,37.40
2019-03-06T05:07:34.784Z,37.40
2019-03-06T05:10:00.751Z,37.30
2019-03-06T05:12:26.711Z,37.30
2019-03-06T05:14:52.759Z,37.30
2019-03-06T05:17:29.543Z,37.30
2019-03-06T05:19:55.501Z,37.30
2019-03-06T05:22:21.533Z,37.20
2019-03-06T05:24:47.477Z,37.20
2019-03-06T05:27:13.446Z,37.20
2019-03-06T05:29:39.477Z,37.20
2019-03-06T05:32:05.422Z,37.20
2019-03-06T05:34:31.783Z,37.20
2019-03-06T05:36:57.840Z,37.20
2019-03-06T05:39:23.896Z,37.20
2019-03-06T05:41:49.945Z,37.20
2019-03-06T05:44:15.874Z,37.20
2019-03-06T05:46:41.829Z,37.20
2019-03-06T05:49:08.091Z,37.20
2019-03-06T05:51:34.020Z,37.10
2019-03-06T05:54:00.032Z,37.10
2019-03-06T05:56:26.026Z,37.10
2019-03-06T05:58:51.999Z,37.20
2019-03-06T06:01:17.929Z,37.10
2019-03-06T06:03:44.287Z,37.20
2019-03-06T06:06:10.258Z,37.40
2019-03-06T06:08:36.296Z,37.10
2019-03-06T06:11:02.360Z,37.20
2019-03-06T06:13:28.320Z,37.20
2019-03-06T06:15:54.299Z,37.20
2019-03-06T06:18:20.331Z,37.20
2019-03-06T06:20:48.276Z,37.20
2019-03-06T06:23:16.310Z,37.20
2019-03-06T06:25:42.336Z,37.20
2019-03-06T06:28:08.282Z,37.20
2019-03-06T06:30:34.361Z,37.30
2019-03-06T06:33:00.409Z,37.10
2019-03-06T06:35:26.568Z,37.20
2019-03-06T06:37:52.547Z,37.20
2019-03-06T06:40:18.510Z,37.20
2019-03-06T06:42:50.219Z,37.20
2019-03-06T06:45:16.297Z,37.20
2019-03-06T06:47:42.244Z,37.20
2019-03-06T06:50:08.214Z,37.30
2019-03-06T06:52:34.165Z,37.20
2019-03-06T06:55:00.255Z,37.20
2019-03-06T06:57:26.378Z,37.30
2019-03-06T06:59:52.328Z,37.30
2019-03-06T07:02:37.161Z,37.30
2019-03-06T07:05:14.135Z,37.40
2019-03-06T07:07:42.002Z,37.20
2019-03-06T07:10:22.077Z,37.40
2019-03-06T07:12:53.006Z,37.40
2019-03-06T07:15:23.720Z,37.40
2019-03-06T07:17:51.609Z,37.30
2019-03-06T07:20:22.596Z,37.30
2019-03-06T07:22:50.480Z,37.40
2019-03-06T07:25:36.844Z,37.30
2019-03-06T07:28:04.805Z,37.40
2019-03-06T07:30:32.860Z,37.30
2019-03-06T07:33:06.786Z,37.30
2019-03-06T07:35:43.510Z,37.30
2019-03-06T07:38:10.086Z,37.30
2019-03-06T07:40:50.477Z,37.30
2019-03-06T07:43:18.498Z,37.50
2019-03-06T07:45:52.236Z,37.40
2019-03-06T07:48:28.939Z,37.40
2019-03-06T07:51:13.474Z,37.40
2019-03-06T07:53:44.355Z,37.40
2019-03-06T07:56:12.223Z,37.40
2019-03-06T07:58:38.162Z,37.40
2019-03-06T08:01:04.213Z,37.40
2019-03-06T08:03:30.318Z,37.40
2019-03-06T08:05:56.359Z,37.50
2019-03-06T08:08:22.294Z,37.50
2019-03-06T08:10:49.669Z,37.50
2019-03-06T08:13:17.535Z,37.50
2019-03-06T08:15:45.395Z,38.10
2019-03-06T08:18:13.343Z,37.50
2019-03-06T08:20:41.299Z,37.50
2019-03-06T08:23:09.143Z,37.50
2019-03-06T08:25:39.775Z,37.50
2019-03-06T08:28:05.809Z,37.40
2019-03-06T08:30:33.665Z,37.50
2019-03-06T08:32:59.630Z,37.40
2019-03-06T08:35:25.702Z,37.60
2019-03-06T08:37:51.963Z,37.40
2019-03-06T08:40:17.925Z,37.40
2019-03-06T08:42:43.901Z,37.40
2019-03-06T08:45:10.964Z,37.40
2019-03-06T08:47:38.805Z,37.40
2019-03-06T08:50:09.685Z,37.40
2019-03-06T08:52:49.605Z,37.40
2019-03-06T08:55:17.577Z,37.40
2019-03-06T08:57:48.597Z,37.40
2019-03-06T09:00:16.467Z,37.30
2019-03-06T09:02:53.929Z,37.50
2019-03-06T09:05:24.775Z,37.40
2019-03-06T09:07:58.601Z,37.30
2019-03-06T09:10:38.653Z,37.30
2019-03-06T09:13:06.513Z,37.30
2019-03-06T09:15:40.460Z,37.20
2019-03-06T09:18:17.349Z,37.10
2019-03-06T09:20:51.341Z,37.10
2019-03-06T09:23:38.028Z,37.10
2019-03-06T09:26:11.727Z,37.10
2019-03-06T09:28:39.713Z,37.20
2019-03-06T09:31:10.693Z,37.20
2019-03-06T09:33:38.684Z,37.20
2019-03-06T09:36:09.360Z,37.20
2019-03-06T09:38:40.086Z,37.20
2019-03-06T09:41:33.453Z,37.20
2019-03-06T09:44:13.559Z,37.20
2019-03-06T09:46:57.995Z,37.20
2019-03-06T09:49:41.202Z,37.20
2019-03-06T09:52:25.695Z,37.20
2019-03-06T09:54:55.084Z,37.10
2019-03-06T09:57:40.132Z,37.00
2019-03-06T10:00:08.208Z,37.00
2019-03-06T10:02:53.249Z,37.00
2019-03-06T10:05:27.038Z,36.90
2019-03-06T10:07:54.891Z,37.00
2019-03-06T10:10:46.201Z,36.90
2019-03-06T10:13:09.167Z,36.90
2019-03-06T10:15:40.239Z,36.80
2019-03-06T10:18:11.208Z,36.80
2019-03-06T10:20:37.265Z,36.80
2019-03-06T10:23:03.208Z,36.80
2019-03-06T10:28:05.948Z,36.80
2019-03-06T10:30:24.868Z,36.80
2019-03-06T10:32:51.668Z,36.80
2019-03-06T10:35:17.696Z,36.80
2019-03-06T10:37:43.738Z,36.80
2019-03-06T10:40:09.777Z,36.80
2019-03-06T10:42:35.978Z,36.90
2019-03-06T10:45:02.032Z,36.90
2019-03-06T10:47:28.103Z,36.70
2019-03-06T10:49:54.144Z,36.90
2019-03-06T10:52:20.636Z,36.90
2019-03-06T10:54:46.663Z,36.90
2019-03-06T10:57:12.703Z,36.90
2019-03-06T10:59:38.967Z,36.90
2019-03-06T11:02:05.028Z,36.50
2019-03-06T11:04:45.288Z,37.00
2019-03-06T11:07:11.326Z,36.90
2019-03-06T11:09:37.360Z,37.00
2019-03-06T11:12:03.437Z,36.90
2019-03-06T11:14:29.814Z,36.90
2019-03-06T11:16:55.870Z,36.90
2019-03-06T11:19:22.226Z,36.90
2019-03-06T11:21:48.305Z,36.90
2019-03-06T11:24:14.375Z,37.00
2019-03-06T11:26:40.421Z,37.00
2019-03-06T11:29:06.370Z,37.10
2019-03-06T11:31:32.446Z,37.60
2019-03-06T11:33:58.479Z,37.10
2019-03-06T11:36:24.444Z,37.10
2019-03-06T11:38:50.419Z,37.20
2019-03-06T11:41:16.470Z,37.20
2019-03-06T11:43:42.519Z,37.20
2019-03-06T11:46:09.960Z,37.20
2019-03-06T11:48:36.028Z,37.20
2019-03-06T11:51:02.100Z,37.20
2019-03-06T11:53:28.152Z,37.20
2019-03-06T11:55:54.201Z,37.20
2019-03-06T11:58:20.294Z,37.10
2019-03-06T12:00:46.740Z,37.10
2019-03-06T12:03:12.774Z,37.00
2019-03-06T12:05:38.846Z,36.90
2019-03-06T12:08:05.033Z,37.00
2019-03-06T12:10:31.458Z,37.00
2019-03-06T12:12:57.634Z,37.00
2019-03-06T12:15:23.706Z,37.00
2019-03-06T12:17:49.754Z,37.00
2019-03-06T12:20:15.726Z,36.90
2019-03-06T12:22:41.860Z,37.00
2019-03-06T12:25:07.930Z,37.50
2019-03-06T12:27:34.085Z,37.00
2019-03-06T12:30:00.324Z,36.90
2019-03-06T12:32:35.399Z,37.20
2019-03-06T12:35:01.483Z,36.90
2019-03-06T12:37:27.524Z,36.90
2019-03-06T12:39:53.594Z,37.00
2019-03-06T12:42:19.823Z,37.20
2019-03-06T12:44:45.819Z,37.20
2019-03-06T12:47:11.779Z,37.20
2019-03-06T12:49:37.861Z,37.20
2019-03-06T12:52:03.936Z,37.20
2019-03-06T12:54:29.962Z,37.10
2019-03-06T12:56:55.957Z,37.10
2019-03-06T12:59:22.011Z,37.10
2019-03-06T13:01:48.075Z,37.20
2019-03-06T13:04:14.017Z,37.10
2019-03-06T13:06:40.089Z,37.20
2019-03-06T13:09:06.460Z,37.10
2019-03-06T13:11:32.521Z,37.20
2019-03-06T13:13:58.612Z,37.20
2019-03-06T13:16:24.662Z,37.30
2019-03-06T13:18:50.638Z,37.30
2019-03-06T13:21:16.868Z,37.20
2019-03-06T13:23:42.945Z,37.30
2019-03-06T13:26:10.640Z,37.30
2019-03-06T13:28:36.913Z,37.20
2019-03-06T13:31:03.041Z,37.30
2019-03-06T13:33:31.041Z,37.30
2019-03-06T13:35:57.121Z,37.20
2019-03-06T13:38:23.479Z,37.30
2019-03-06T13:40:49.638Z,37.20
2019-03-06T13:43:15.679Z,37.20
2019-03-06T13:45:41.818Z,37.30
2019-03-06T13:48:07.772Z,37.30
2019-03-06T13:50:33.753Z,37.30
2019-03-06T13:52:59.818Z,37.30
2019-03-06T13:55:25.859Z,37.30
2019-03-06T13:57:51.908Z,37.30
2019-03-06T14:00:18.260Z,37.30
2019-03-06T14:02:45.039Z,37.40
2019-03-06T14:05:11.281Z,37.40
2019-03-06T14:07:37.351Z,37.30
2019-03-06T14:10:03.399Z,37.40
2019-03-06T14:12:30.325Z,37.30
2019-03-06T14:14:56.387Z,37.30
2019-03-06T14:17:22.749Z,37.40
2019-03-06T14:19:48.818Z,37.40
2019-03-06T14:22:14.906Z,37.60
2019-03-06T14:24:41.006Z,37.20
2019-03-06T14:27:07.041Z,37.60
2019-03-06T14:29:33.111Z,37.60
2019-03-06T14:31:59.161Z,37.60
2019-03-06T14:34:25.143Z,37.50
2019-03-06T14:36:51.398Z,37.60
2019-03-06T14:39:17.449Z,37.50
2019-03-06T14:41:43.506Z,37.40
2019-03-06T14:44:09.471Z,37.30
2019-03-06T14:46:35.514Z,37.30
2019-03-06T14:49:01.557Z,37.20
2019-03-06T14:51:27.626Z,37.30
2019-03-06T14:53:53.683Z,37.10
2019-03-06T14:56:19.728Z,37.00
2019-03-06T14:58:45.762Z,36.90
2019-03-06T15:01:11.828Z,37.00
2019-03-06T15:03:37.868Z,36.90
2019-03-06T15:06:04.044Z,36.80
2019-03-06T15:08:30.111Z,36.90
2019-03-06T15:10:56.168Z,36.90
2019-03-06T15:13:22.239Z,36.90
2019-03-06T15:15:48.296Z,36.90
2019-03-06T15:18:14.374Z,37.00
2019-03-06T15:20:40.434Z,37.30
2019-03-06T15:23:06.492Z,37.00
2019-03-06T15:25:32.524Z,37.00
2019-03-06T15:27:58.532Z,37.00
2019-03-06T15:30:24.599Z,37.00
2019-03-06T15:32:50.649Z,37.00
2019-03-06T15:35:16.986Z,36.90
2019-03-06T15:37:43.074Z,36.90
2019-03-06T15:40:09.304Z,37.00
2019-03-06T15:42:35.268Z,37.00
2019-03-06T15:45:01.442Z,36.90
2019-03-06T15:47:33.684Z,36.90
2019-03-06T15:49:55.373Z,36.90
2019-03-06T15:52:21.657Z,36.90
2019-03-06T15:54:47.759Z,36.90
2019-03-06T15:57:13.804Z,36.90
2019-03-06T15:59:39.912Z,37.10
2019-03-06T16:02:05.954Z,36.90
2019-03-06T16:04:32.033Z,37.00
2019-03-06T16:06:58.307Z,37.10
2019-03-06T16:09:24.401Z,37.00
2019-03-06T16:11:50.747Z,37.10
2019-03-06T16:14:16.838Z,37.10
2019-03-06T16:16:42.800Z,37.00
2019-03-06T16:19:08.847Z,37.00
2019-03-06T16:21:34.900Z,37.00
2019-03-06T16:24:00.970Z,36.80
2019-03-06T16:26:27.035Z,36.80
2019-03-06T16:28:53.094Z,36.80
2019-03-06T16:31:19.455Z,36.80
2019-03-06T16:33:45.543Z,36.70
2019-03-06T16:36:11.605Z,36.70
2019-03-06T16:38:37.664Z,36.70
2019-03-06T16:41:03.722Z,36.60
2019-03-06T16:43:29.831Z,36.60
2019-03-06T16:45:56.335Z,36.50
2019-03-06T16:48:22.721Z,36.60
2019-03-06T16:50:49.062Z,36.50
2019-03-06T16:53:15.380Z,36.50
2019-03-06T16:55:41.470Z,36.50
2019-03-06T16:58:07.553Z,36.50
2019-03-06T17:00:33.611Z,36.50
2019-03-06T17:02:59.684Z,36.80
2019-03-06T17:05:25.756Z,36.30
2019-03-06T17:07:52.192Z,36.40
2019-03-06T17:10:18.290Z,36.40
2019-03-06T17:12:44.957Z,36.50
2019-03-06T17:15:10.982Z,36.40
2019-03-06T17:17:36.939Z,36.30
2019-03-06T17:20:02.985Z,36.40
2019-03-06T17:22:29.252Z,36.50
2019-03-06T17:24:55.314Z,36.40
2019-03-06T17:27:21.592Z,36.50
2019-03-06T17:29:47.632Z,37.00
2019-03-06T17:32:13.816Z,36.50
2019-03-06T17:34:39.850Z,36.50
2019-03-06T17:37:05.936Z,36.40
2019-03-06T17:39:31.961Z,36.40
2019-03-06T17:41:57.909Z,36.40
2019-03-06T17:44:24.010Z,36.40
2019-03-06T17:46:50.146Z,36.30
2019-03-06T17:49:16.236Z,36.30
2019-03-06T17:51:42.303Z,36.40
2019-03-06T17:54:08.397Z,36.40
2019-03-06T17:56:34.430Z,36.40
2019-03-06T17:59:00.491Z,36.40
2019-03-06T18:01:26.646Z,36.30
2019-03-06T18:03:54.519Z,36.40
2019-03-06T18:06:20.565Z,36.30
2019-03-06T18:08:46.500Z,36.30
2019-03-06T18:11:12.555Z,36.40
2019-03-06T18:13:38.498Z,36.40
2019-03-06T18:16:04.475Z,36.30
2019-03-06T18:18:30.515Z,36.30
2019-03-06T18:20:56.514Z,36.30
2019-03-06T18:23:22.580Z,36.30
2019-03-06T18:25:48.867Z,36.30
2019-03-06T18:28:14.939Z,36.30
2019-03-06T18:30:41.116Z,36.20
2019-03-06T18:33:07.184Z,36.20
2019-03-06T18:35:33.363Z,36.20
2019-03-06T18:37:59.425Z,36.30
2019-03-06T18:40:25.475Z,36.30
2019-03-06T18:42:51.805Z,36.30
2019-03-06T18:45:18.043Z,36.20
2019-03-06T18:47:44.219Z,36.20
2019-03-06T18:50:10.289Z,36.20
2019-03-06T18:52:42.027Z,36.20
2019-03-06T18:55:08.093Z,36.20
2019-03-06T18:57:34.151Z,36.30
2019-03-06T19:00:00.383Z,36.20
2019-03-06T19:02:28.029Z,36.30
2019-03-06T19:04:54.153Z,36.20
2019-03-06T19:07:20.254Z,36.20
2019-03-06T19:09:46.334Z,36.20
2019-03-06T19:12:12.385Z,36.20
2019-03-06T19:14:38.428Z,36.20
2019-03-06T19:17:04.509Z,36.20
2019-03-06T19:19:30.573Z,36.10
2019-03-06T19:21:56.627Z,36.20
2019-03-06T19:24:22.929Z,36.20
2019-03-06T19:26:48.990Z,36.20
2019-03-06T19:29:15.059Z,36.10
2019-03-06T19:31:41.135Z,36.10
2019-03-06T19:34:07.196Z,36.10
2019-03-06T19:36:33.341Z,36.10
2019-03-06T19:38:59.415Z,36.10
2019-03-06T19:41:25.525Z,36.10
2019-03-06T19:43:51.800Z,36.80
2019-03-06T19:46:17.841Z,36.10
2019-03-06T19:48:44.187Z,36.10
2019-03-06T19:51:11.512Z,36.80
2019-03-06T19:53:37.719Z,36.10
2019-03-06T19:56:03.805Z,36.10
2019-03-06T19:58:29.960Z,36.20
2019-03-06T20:00:56.040Z,36.10
2019-03-06T20:03:22.504Z,36.10
2019-03-06T20:05:48.581Z,36.20
2019-03-06T20:08:14.645Z,36.10
2019-03-06T20:10:40.728Z,36.10
2019-03-06T20:13:06.807Z,36.10
2019-03-06T20:15:32.896Z,36.10
2019-03-06T20:17:58.938Z,36.10
2019-03-06T20:20:25.071Z,36.70
2019-03-06T20:22:51.268Z,36.10
2019-03-06T20:25:17.615Z,36.80
2019-03-06T20:27:43.685Z,36.10
2019-03-06T20:30:09.668Z,36.10
2019-03-06T20:32:36.368Z,36.20
2019-03-06T20:35:02.409Z,36.10
2019-03-06T20:37:28.462Z,36.10
2019-03-06T20:39:54.497Z,36.00
2019-03-06T20:42:20.852Z,36.10
2019-03-06T20:44:47.418Z,36.10
2019-03-06T20:47:13.514Z,36.70
2019-03-06T20:49:39.548Z,36.10
2019-03-06T20:52:05.607Z,36.10
2019-03-06T20:54:31.654Z,36.10
2019-03-06T20:56:57.738Z,36.10
2019-03-06T20:59:23.783Z,36.10
2019-03-06T21:01:49.740Z,36.00
2019-03-06T21:04:15.793Z,36.10
2019-03-06T21:06:42.254Z,36.00
2019-03-06T21:09:08.310Z,36.10
2019-03-06T21:11:36.237Z,36.10
2019-03-06T21:14:02.213Z,36.20
2019-03-06T21:16:28.281Z,36.20
2019-03-06T21:18:54.349Z,36.30
2019-03-06T21:21:20.373Z,36.40
2019-03-06T21:23:46.412Z,36.40
2019-03-06T21:26:12.472Z,36.50
2019-03-06T21:28:38.548Z,36.50
2019-03-06T21:31:04.616Z,36.50
2019-03-06T21:33:30.682Z,36.40
2019-03-06T21:35:56.758Z,36.40
2019-03-06T21:38:22.806Z,36.50
2019-03-06T21:40:48.871Z,36.50
2019-03-06T21:43:14.905Z,36.50
2019-03-06T21:45:40.970Z,36.50
2019-03-06T21:48:06.999Z,36.70
2019-03-06T21:50:33.071Z,36.50
2019-03-06T21:52:59.134Z,36.50
2019-03-06T21:55:25.524Z,36.50
2019-03-06T21:57:51.578Z,36.50
2019-03-06T22:00:17.924Z,36.50
2019-03-06T22:02:43.990Z,36.50
2019-03-06T22:05:10.041Z,36.50
2019-03-06T22:07:36.102Z,36.50
2019-03-06T22:10:02.156Z,36.60
2019-03-06T22:12:28.897Z,36.70
2019-03-06T22:14:55.280Z,36.60
2019-03-06T22:17:21.352Z,36.80
2019-03-06T22:19:47.424Z,36.60
2019-03-06T22:22:13.498Z,36.70
2019-03-06T22:24:39.555Z,36.60
2019-03-06T22:27:05.627Z,36.70
2019-03-06T22:29:31.665Z,36.70
2019-03-06T22:31:57.699Z,37.30
2019-03-06T22:34:24.069Z,36.80
2019-03-06T22:36:50.189Z,36.70
2019-03-06T22:39:16.240Z,36.70
2019-03-06T22:41:42.321Z,36.80
2019-03-06T22:44:08.384Z,36.90
2019-03-06T22:46:34.451Z,36.90
2019-03-06T22:49:00.491Z,36.90
2019-03-06T22:51:26.573Z,36.90
2019-03-06T22:53:53.027Z,36.80
2019-03-06T22:56:19.087Z,36.90
2019-03-06T22:58:45.127Z,36.90
2019-03-06T23:01:11.088Z,36.90
2019-03-06T23:03:37.141Z,37.00
2019-03-06T23:06:03.199Z,37.10
2019-03-06T23:08:29.283Z,37.00
2019-03-06T23:10:55.332Z,37.60
2019-03-06T23:13:21.686Z,37.00
2019-03-06T23:15:47.744Z,37.10
2019-03-06T23:18:13.807Z,37.10
2019-03-06T23:20:39.866Z,37.10
2019-03-06T23:23:05.976Z,37.10
2019-03-06T23:25:31.993Z,37.10
2019-03-06T23:27:58.029Z,37.10
2019-03-06T23:30:23.993Z,37.10
2019-03-06T23:32:50.464Z,37.20
2019-03-06T23:35:16.515Z,36.70
2019-03-06T23:37:42.562Z,37.20
2019-03-06T23:40:08.629Z,37.30
2019-03-06T23:42:35.109Z,37.10
2019-03-06T23:45:01.092Z,37.20
2019-03-06T23:47:27.149Z,37.10
2019-03-06T23:49:53.533Z,37.10
2019-03-06T23:52:26.569Z,37.20
2019-03-06T23:54:52.532Z,37.10
2019-03-06T23:57:18.591Z,37.20
2019-03-06T23:59:44.636Z,37.10
